createdAt,value
2024-05-09T00:00:41.964Z,40.40
2024-05-09T00:03:10.942Z,40.36
2024-05-09T00:05:41.336Z,40.12
2024-05-09T00:08:10.010Z,40.34
2024-05-09T00:10:39.433Z,40.31
2024-05-09T00:13:08.168Z,40.33
2024-05-09T00:15:36.359Z,40.48
2024-05-09T00:18:05.562Z,40.35
2024-05-09T00:20:38.657Z,40.40
2024-05-09T00:23:12.164Z,40.27
2024-05-09T00:25:42.585Z,40.44
2024-05-09T00:28:11.740Z,40.45
2024-05-09T00:30:38.895Z,39.98
2024-05-09T00:33:07.612Z,39.98
2024-05-09T00:35:36.490Z,40.17
2024-05-09T00:38:04.388Z,39.76
2024-05-09T00:40:43.355Z,39.74
2024-05-09T00:43:17.880Z,40.06
2024-05-09T00:45:45.331Z,40.12
2024-05-09T00:48:17.564Z,39.79
2024-05-09T00:50:48.134Z,39.88
2024-05-09T00:53:18.621Z,39.69
2024-05-09T00:55:47.788Z,39.98
2024-05-09T00:58:18.608Z,39.88
2024-05-09T01:00:45.899Z,39.96
2024-05-09T01:03:14.338Z,39.70
2024-05-09T01:05:43.340Z,40.10
2024-05-09T01:08:11.682Z,40.14
2024-05-09T01:10:42.556Z,40.45
2024-05-09T01:13:11.946Z,40.61
2024-05-09T01:15:39.301Z,40.73
2024-05-09T01:18:13.829Z,41.13
2024-05-09T01:20:44.144Z,40.98
2024-05-09T01:23:15.237Z,41.53
2024-05-09T01:25:44.835Z,41.48
2024-05-09T01:28:12.585Z,41.46
2024-05-09T01:30:39.994Z,41.44
2024-05-09T01:33:09.287Z,41.47
2024-05-09T01:35:39.430Z,41.31
2024-05-09T01:38:08.091Z,41.58
2024-05-09T01:40:38.853Z,41.46
2024-05-09T01:43:09.328Z,41.42
2024-05-09T01:45:38.220Z,41.49
2024-05-09T01:48:08.938Z,41.63
2024-05-09T01:50:40.423Z,41.37
2024-05-09T01:53:11.860Z,41.16
2024-05-09T01:55:39.576Z,41.34
2024-05-09T01:58:07.664Z,41.12
2024-05-09T02:00:40.250Z,41.29
2024-05-09T02:03:13.328Z,41.08
2024-05-09T02:05:44.590Z,41.05
2024-05-09T02:08:17.474Z,41.16
2024-05-09T02:10:47.315Z,41.28
2024-05-09T02:13:15.561Z,41.13
2024-05-09T02:15:42.939Z,40.96
2024-05-09T02:18:11.078Z,40.99
2024-05-09T02:20:39.849Z,40.97
2024-05-09T02:23:09.419Z,40.98
2024-05-09T02:25:37.064Z,41.23
2024-05-09T02:28:04.475Z,41.01
2024-05-09T02:30:40.140Z,41.22
2024-05-09T02:33:12.151Z,41.10
2024-05-09T02:35:41.782Z,41.22
2024-05-09T02:38:10.052Z,41.60
2024-05-09T02:40:39.390Z,41.22
2024-05-09T02:43:09.955Z,41.30
2024-05-09T02:45:38.939Z,41.49
2024-05-09T02:48:07.193Z,41.41
2024-05-09T02:50:38.873Z,41.53
2024-05-09T02:53:08.884Z,42.16
2024-05-09T02:55:38.363Z,41.69
2024-05-09T02:58:07.815Z,41.94
2024-05-09T03:00:39.668Z,42.15
2024-05-09T03:03:12.791Z,42.24
2024-05-09T03:05:43.145Z,42.58
2024-05-09T03:08:10.771Z,42.53
2024-05-09T03:10:39.295Z,42.59
2024-05-09T03:13:13.180Z,42.66
2024-05-09T03:15:42.959Z,42.63
2024-05-09T03:18:11.125Z,42.82
2024-05-09T03:20:39.507Z,43.09
2024-05-09T03:23:09.294Z,43.32
2024-05-09T03:25:37.821Z,43.16
2024-05-09T03:28:05.411Z,43.18
2024-05-09T03:30:40.072Z,43.36
2024-05-09T03:33:20.829Z,43.40
2024-05-09T03:35:49.521Z,43.45
2024-05-09T03:38:17.151Z,43.78
2024-05-09T03:40:46.347Z,43.58
2024-05-09T03:43:14.570Z,43.88
2024-05-09T03:45:45.523Z,43.51
2024-05-09T03:48:13.234Z,43.87
2024-05-09T03:50:40.827Z,43.84
2024-05-09T03:53:11.304Z,44.19
2024-05-09T03:55:39.304Z,44.06
2024-05-09T03:58:09.443Z,44.07
2024-05-09T04:00:39.389Z,44.02
2024-05-09T04:03:10.604Z,44.18
2024-05-09T04:05:41.456Z,44.40
2024-05-09T04:08:10.069Z,44.21
2024-05-09T04:10:37.837Z,44.50
2024-05-09T04:13:05.418Z,44.27
2024-05-09T04:15:32.930Z,44.65
2024-05-09T04:18:01.050Z,44.70
2024-05-09T04:20:36.722Z,44.69
2024-05-09T04:23:09.034Z,44.89
2024-05-09T04:25:37.263Z,44.77
2024-05-09T04:28:05.278Z,44.68
2024-05-09T04:30:38.143Z,45.15
2024-05-09T04:33:10.448Z,45.25
2024-05-09T04:35:39.894Z,45.05
2024-05-09T04:38:08.201Z,45.22
2024-05-09T04:40:37.121Z,45.28
2024-05-09T04:43:15.492Z,45.56
2024-05-09T04:45:43.387Z,45.64
2024-05-09T04:48:11.151Z,45.42
2024-05-09T04:50:39.695Z,45.90
2024-05-09T04:53:15.606Z,45.80
2024-05-09T04:55:43.441Z,45.52
2024-05-09T04:58:12.067Z,45.76
2024-05-09T05:00:40.823Z,45.74
2024-05-09T05:03:13.469Z,45.91
2024-05-09T05:05:45.141Z,45.55
2024-05-09T05:08:18.610Z,45.87
2024-05-09T05:10:48.104Z,46.03
2024-05-09T05:13:18.226Z,45.69
2024-05-09T05:15:51.479Z,46.20
2024-05-09T05:18:19.192Z,46.37
2024-05-09T05:20:46.713Z,46.42
2024-05-09T05:23:19.693Z,46.71
2024-05-09T05:25:48.666Z,46.24
2024-05-09T05:28:16.974Z,46.26
2024-05-09T05:30:44.652Z,46.52
2024-05-09T05:33:16.248Z,46.08
2024-05-09T05:35:43.675Z,46.34
2024-05-09T05:38:11.285Z,46.58
2024-05-09T05:40:39.925Z,46.54
2024-05-09T05:43:10.196Z,46.32
2024-05-09T05:45:38.452Z,46.72
2024-05-09T05:48:07.845Z,46.54
2024-05-09T05:50:37.751Z,46.58
2024-05-09T05:53:08.038Z,46.34
2024-05-09T05:55:44.931Z,46.55
2024-05-09T05:58:12.809Z,46.49
2024-05-09T06:00:42.063Z,46.54
2024-05-09T06:03:10.822Z,46.58
2024-05-09T06:05:44.061Z,46.69
2024-05-09T06:08:12.408Z,46.27
2024-05-09T06:10:41.228Z,46.22
2024-05-09T06:13:12.742Z,46.35
2024-05-09T06:15:41.270Z,45.87
2024-05-09T06:18:10.218Z,45.90
2024-05-09T06:20:40.260Z,45.95
2024-05-09T06:23:09.516Z,45.83
2024-05-09T06:25:37.506Z,45.80
2024-05-09T06:28:05.220Z,45.73
2024-05-09T06:33:03.653Z,45.60
2024-05-09T06:35:31.193Z,45.71
2024-05-09T06:37:58.621Z,45.35
2024-05-09T06:40:34.428Z,45.16
2024-05-09T06:43:05.420Z,45.11
2024-05-09T06:45:32.660Z,44.99
2024-05-09T06:48:00.187Z,45.06
2024-05-09T06:50:35.701Z,44.60
2024-05-09T06:53:05.606Z,44.61
2024-05-09T06:55:32.820Z,44.27
2024-05-09T06:58:00.283Z,44.27
2024-05-09T07:00:35.276Z,44.48
2024-05-09T07:03:11.617Z,44.45
2024-05-09T07:05:40.242Z,44.31
2024-05-09T07:08:08.288Z,44.33
2024-05-09T07:10:37.036Z,43.95
2024-05-09T07:13:15.346Z,43.65
2024-05-09T07:15:43.354Z,43.98
2024-05-09T07:18:17.150Z,43.20
2024-05-09T07:20:46.617Z,43.61
2024-05-09T07:23:14.208Z,43.26
2024-05-09T07:25:42.240Z,42.99
2024-05-09T07:28:20.960Z,41.84
2024-05-09T07:30:48.307Z,42.56
2024-05-09T07:33:22.160Z,41.92
2024-05-09T07:35:50.940Z,42.08
2024-05-09T07:38:18.375Z,41.71
2024-05-09T07:40:45.722Z,41.71
2024-05-09T07:43:14.828Z,41.47
2024-05-09T07:45:51.252Z,41.05
2024-05-09T07:52:38.924Z,41.39
2024-05-09T07:53:47.770Z,41.00
2024-05-09T07:56:19.904Z,40.86
2024-05-09T07:58:50.980Z,40.53
2024-05-09T08:01:18.620Z,39.92
2024-05-09T08:03:46.318Z,39.79
2024-05-09T08:06:13.952Z,39.44
2024-05-09T08:08:41.200Z,40.08
2024-05-09T08:11:08.498Z,39.79
2024-05-09T08:13:35.951Z,39.21
2024-05-09T08:16:03.207Z,39.17
2024-05-09T08:18:30.800Z,38.98
2024-05-09T08:20:58.553Z,38.25
2024-05-09T08:23:25.790Z,38.25
2024-05-09T08:25:55.916Z,38.15
2024-05-09T08:28:23.202Z,36.55
2024-05-09T08:30:50.855Z,35.65
2024-05-09T08:33:18.325Z,36.16
2024-05-09T08:35:45.813Z,36.21
2024-05-09T08:38:12.946Z,35.36
2024-05-09T08:40:41.462Z,34.12
2024-05-09T08:43:11.405Z,33.84
2024-05-09T08:45:44.018Z,33.99
2024-05-09T08:48:15.203Z,34.02
2024-05-09T08:50:45.009Z,34.61
2024-05-09T08:53:14.928Z,35.13
2024-05-09T08:55:46.374Z,36.31
2024-05-09T08:58:20.152Z,36.11
2024-05-09T09:00:48.871Z,36.92
2024-05-09T09:03:25.358Z,36.40
2024-05-09T09:06:09.389Z,36.46
2024-05-09T09:08:40.029Z,35.78
2024-05-09T09:11:07.422Z,36.81
2024-05-09T09:13:34.733Z,36.58
2024-05-09T09:16:03.437Z,36.80
2024-05-09T09:18:31.176Z,36.98
2024-05-09T09:20:58.954Z,36.39
2024-05-09T09:23:30.555Z,36.51
2024-05-09T09:26:01.182Z,36.15
2024-05-09T09:28:29.862Z,35.76
2024-05-09T09:31:04.658Z,33.46
2024-05-09T09:33:32.907Z,36.90
2024-05-09T09:36:03.124Z,35.93
2024-05-09T09:38:32.712Z,34.53
2024-05-09T09:41:05.598Z,34.58
2024-05-09T09:43:33.704Z,35.16
2024-05-09T09:46:02.319Z,35.97
2024-05-09T09:48:32.433Z,36.75
2024-05-09T09:51:03.472Z,36.51
2024-05-09T09:53:32.061Z,35.61
2024-05-09T09:56:00.810Z,37.21
2024-05-09T09:58:30.332Z,37.04
2024-05-09T10:00:58.070Z,37.24
2024-05-09T10:03:26.325Z,38.06
2024-05-09T10:05:54.870Z,37.17
2024-05-09T10:08:24.489Z,36.93
2024-05-09T10:10:52.066Z,37.78
2024-05-09T10:13:20.216Z,37.50
2024-05-09T10:15:51.432Z,36.46
2024-05-09T10:18:28.464Z,35.51
2024-05-09T10:20:58.080Z,36.39
2024-05-09T10:23:29.936Z,35.98
2024-05-09T10:28:38.198Z,35.23
2024-05-09T10:31:10.223Z,34.85
2024-05-09T10:33:45.847Z,35.41
2024-05-09T10:36:19.435Z,35.32
2024-05-09T10:38:46.862Z,37.71
2024-05-09T10:41:14.085Z,37.24
2024-05-09T10:43:42.293Z,38.78
2024-05-09T10:46:11.273Z,38.86
2024-05-09T10:48:39.358Z,38.34
2024-05-09T10:51:07.050Z,37.99
2024-05-09T10:53:46.370Z,37.30
2024-05-09T10:56:18.190Z,37.36
2024-05-09T10:58:45.451Z,35.41
2024-05-09T11:01:13.999Z,36.96
2024-05-09T11:03:42.201Z,37.70
2024-05-09T11:06:11.531Z,37.98
2024-05-09T11:08:39.700Z,38.35
2024-05-09T11:11:08.703Z,39.06
2024-05-09T11:13:38.747Z,39.30
2024-05-09T11:16:16.399Z,38.76
2024-05-09T11:18:44.917Z,38.79
2024-05-09T11:21:17.686Z,39.43
2024-05-09T11:23:44.982Z,39.81
2024-05-09T11:26:15.467Z,38.83
2024-05-09T11:28:46.886Z,38.48
2024-05-09T11:31:14.188Z,38.85
2024-05-09T11:33:44.170Z,38.42
2024-05-09T11:36:12.285Z,38.91
2024-05-09T11:38:39.827Z,38.88
2024-05-09T11:41:07.345Z,38.39
2024-05-09T11:43:34.595Z,38.83
2024-05-09T11:46:03.911Z,38.03
2024-05-09T11:48:32.008Z,37.14
2024-05-09T11:50:59.764Z,36.29
2024-05-09T11:53:26.922Z,36.11
2024-05-09T11:55:54.205Z,36.10
2024-05-09T11:58:23.118Z,36.36
2024-05-09T12:00:50.557Z,34.56
2024-05-09T12:03:18.262Z,34.06
2024-05-09T12:05:45.997Z,35.58
2024-05-09T12:08:13.369Z,34.78
2024-05-09T12:10:41.333Z,36.63
2024-05-09T12:13:08.757Z,36.16
2024-05-09T12:15:37.995Z,36.19
2024-05-09T12:18:08.012Z,36.05
2024-05-09T12:20:38.999Z,35.05
2024-05-09T12:23:09.672Z,36.10
2024-05-09T12:25:39.970Z,36.18
2024-05-09T12:28:08.667Z,36.18
2024-05-09T12:30:40.420Z,35.41
2024-05-09T12:33:11.831Z,35.03
2024-05-09T12:35:40.244Z,35.53
2024-05-09T12:38:07.710Z,34.64
2024-05-09T12:40:37.821Z,35.36
2024-05-09T12:43:10.826Z,34.42
2024-05-09T12:45:39.795Z,35.04
2024-05-09T12:48:12.344Z,34.29
2024-05-09T12:50:41.077Z,35.09
2024-05-09T12:53:08.514Z,35.21
2024-05-09T12:55:44.176Z,34.05
2024-05-09T12:58:20.110Z,35.14
2024-05-09T13:00:47.578Z,35.43
2024-05-09T13:03:15.264Z,34.18
2024-05-09T13:05:45.356Z,34.45
2024-05-09T13:08:14.032Z,33.95
2024-05-09T13:10:41.856Z,33.85
2024-05-09T13:13:12.860Z,35.31
2024-05-09T13:15:40.425Z,34.82
2024-05-09T13:18:08.889Z,35.29
2024-05-09T13:20:37.145Z,35.94
2024-05-09T13:23:07.217Z,37.03
2024-05-09T13:25:35.595Z,36.64
2024-05-09T13:28:04.177Z,37.96
2024-05-09T13:30:39.253Z,38.92
2024-05-09T13:33:11.286Z,39.23
2024-05-09T13:35:40.757Z,40.08
2024-05-09T13:38:09.323Z,38.68
2024-05-09T13:40:36.830Z,40.34
2024-05-09T13:43:05.009Z,41.00
2024-05-09T13:45:33.362Z,40.56
2024-05-09T13:48:02.363Z,40.66
2024-05-09T13:50:36.015Z,41.40
2024-05-09T13:53:06.815Z,41.10
2024-05-09T13:55:35.571Z,41.67
2024-05-09T13:58:03.345Z,41.50
2024-05-09T14:00:42.613Z,41.29
2024-05-09T14:03:15.707Z,42.14
2024-05-09T14:05:43.904Z,43.80
2024-05-09T14:08:12.058Z,42.34
2024-05-09T14:10:44.790Z,43.82
2024-05-09T14:13:13.411Z,43.64
2024-05-09T14:15:41.558Z,43.09
2024-05-09T14:18:12.618Z,43.24
2024-05-09T14:20:41.553Z,43.72
2024-05-09T14:23:08.786Z,44.42
2024-05-09T14:25:39.957Z,44.09
2024-05-09T14:28:10.179Z,44.90
2024-05-09T14:30:38.746Z,43.11
2024-05-09T14:33:07.983Z,43.78
2024-05-09T14:35:38.129Z,43.84
2024-05-09T14:38:07.454Z,44.65
2024-05-09T14:40:41.428Z,45.25
2024-05-09T14:43:12.601Z,46.21
2024-05-09T14:45:41.031Z,43.70
2024-05-09T14:48:09.128Z,44.43
2024-05-09T14:50:41.078Z,43.90
2024-05-09T14:53:12.913Z,42.78
2024-05-09T14:55:42.592Z,44.28
2024-05-09T14:58:11.503Z,44.32
2024-05-09T15:00:47.935Z,43.05
2024-05-09T15:03:19.963Z,45.68
2024-05-09T15:05:48.794Z,45.25
2024-05-09T15:08:18.219Z,45.99
2024-05-09T15:10:46.359Z,45.47
2024-05-09T15:13:16.424Z,44.67
2024-05-09T15:15:44.571Z,45.90
2024-05-09T15:18:12.392Z,45.67
2024-05-09T15:20:40.954Z,44.78
2024-05-09T15:23:08.391Z,45.60
2024-05-09T15:25:36.702Z,46.02
2024-05-09T15:28:05.451Z,45.65
2024-05-09T15:30:34.243Z,46.05
2024-05-09T15:33:07.143Z,44.91
2024-05-09T15:35:36.049Z,45.74
2024-05-09T15:38:04.257Z,45.58
2024-05-09T15:40:38.950Z,46.04
2024-05-09T15:43:10.428Z,45.83
2024-05-09T15:45:39.422Z,45.72
2024-05-09T15:48:07.785Z,45.35
2024-05-09T15:50:39.329Z,44.30
2024-05-09T15:53:10.388Z,45.71
2024-05-09T15:55:38.642Z,45.15
2024-05-09T15:58:07.414Z,45.31
2024-05-09T16:00:41.707Z,44.76
2024-05-09T16:03:12.326Z,44.81
2024-05-09T16:05:41.530Z,44.95
2024-05-09T16:08:09.504Z,45.01
2024-05-09T16:10:43.506Z,44.69
2024-05-09T16:13:12.484Z,43.97
2024-05-09T16:15:40.000Z,44.35
2024-05-09T16:18:07.794Z,44.68
2024-05-09T16:20:40.042Z,45.18
2024-05-09T16:23:09.650Z,45.38
2024-05-09T16:25:37.759Z,45.53
2024-05-09T16:28:08.965Z,45.37
2024-05-09T16:30:39.755Z,45.44
2024-05-09T16:33:07.887Z,45.20
2024-05-09T16:35:35.702Z,45.17
2024-05-09T16:38:04.239Z,45.42
2024-05-09T16:40:38.445Z,45.57
2024-05-09T16:43:13.095Z,46.21
2024-05-09T16:45:43.808Z,45.65
2024-05-09T16:48:11.824Z,45.47
2024-05-09T16:50:39.350Z,45.85
2024-05-09T16:53:07.170Z,44.89
2024-05-09T16:55:37.498Z,46.09
2024-05-09T16:58:07.077Z,45.16
2024-05-09T17:00:40.926Z,45.42
2024-05-09T17:03:13.480Z,45.04
2024-05-09T17:05:42.664Z,45.82
2024-05-09T17:08:10.453Z,45.66
2024-05-09T17:10:37.825Z,46.15
2024-05-09T17:13:07.154Z,45.37
2024-05-09T17:15:38.473Z,45.54
2024-05-09T17:18:10.102Z,44.90
2024-05-09T17:20:38.023Z,45.35
2024-05-09T17:23:13.369Z,44.38
2024-05-09T17:25:41.881Z,45.18
2024-05-09T17:28:09.661Z,43.15
2024-05-09T17:30:39.300Z,43.59
2024-05-09T17:33:10.057Z,42.14
2024-05-09T17:35:38.595Z,43.81
2024-05-09T17:38:06.783Z,43.29
2024-05-09T17:40:36.738Z,42.80
2024-05-09T17:43:08.362Z,42.19
2024-05-09T17:45:41.539Z,42.34
2024-05-09T17:48:11.370Z,42.55
2024-05-09T17:50:40.275Z,42.17
2024-05-09T17:53:08.815Z,41.64
2024-05-09T17:55:36.662Z,42.14
2024-05-09T17:58:05.285Z,42.67
2024-05-09T18:00:38.634Z,41.60
2024-05-09T18:03:12.017Z,42.05
2024-05-09T18:05:40.840Z,41.70
2024-05-09T18:08:08.809Z,41.20
2024-05-09T18:10:39.198Z,40.93
2024-05-09T18:13:09.017Z,41.82
2024-05-09T18:15:37.276Z,41.04
2024-05-09T18:18:05.849Z,41.81
2024-05-09T18:20:41.733Z,41.23
2024-05-09T18:23:14.181Z,42.15
2024-05-09T18:25:42.411Z,41.45
2024-05-09T18:28:10.112Z,41.73
2024-05-09T18:30:38.003Z,41.40
2024-05-09T18:33:07.835Z,41.80
2024-05-09T18:35:36.982Z,41.80
2024-05-09T18:38:05.747Z,41.93
2024-05-09T18:40:36.521Z,41.75
2024-05-09T18:43:09.365Z,41.94
2024-05-09T18:45:38.616Z,42.04
2024-05-09T18:48:08.248Z,41.78
2024-05-09T18:50:39.515Z,42.07
2024-05-09T18:53:11.004Z,41.84
2024-05-09T18:55:39.340Z,41.94
2024-05-09T18:58:06.904Z,41.97
2024-05-09T19:00:37.624Z,42.43
2024-05-09T19:03:12.663Z,42.47
2024-05-09T19:05:43.149Z,42.72
2024-05-09T19:08:11.639Z,42.76
2024-05-09T19:10:39.943Z,42.88
2024-05-09T19:13:12.704Z,43.51
2024-05-09T19:15:42.666Z,43.38
2024-05-09T19:18:15.649Z,43.51
2024-05-09T19:20:44.323Z,43.75
2024-05-09T19:23:12.071Z,44.09
2024-05-09T19:25:39.379Z,44.14
2024-05-09T19:28:07.005Z,44.63
2024-05-09T19:30:40.001Z,44.13
2024-05-09T19:33:13.040Z,44.45
2024-05-09T19:35:41.412Z,44.55
2024-05-09T19:38:08.657Z,44.70
2024-05-09T19:40:36.368Z,44.75
2024-05-09T19:43:05.482Z,44.69
2024-05-09T19:45:35.062Z,44.83
2024-05-09T19:48:03.903Z,44.84
2024-05-09T19:50:37.911Z,44.80
2024-05-09T19:53:11.127Z,44.87
2024-05-09T19:55:38.786Z,44.75
2024-05-09T19:58:07.542Z,45.05
2024-05-09T20:00:41.042Z,44.56
2024-05-09T20:03:12.307Z,44.84
2024-05-09T20:05:40.073Z,44.45
2024-05-09T20:08:07.933Z,43.90
2024-05-09T20:10:36.409Z,43.97
2024-05-09T20:13:06.877Z,43.94
2024-05-09T20:15:37.102Z,43.77
2024-05-09T20:18:05.305Z,43.73
2024-05-09T20:20:39.496Z,43.57
2024-05-09T20:23:10.567Z,43.54
2024-05-09T20:25:38.048Z,43.87
2024-05-09T20:28:06.669Z,43.86
2024-05-09T20:30:35.557Z,43.84
2024-05-09T20:33:05.525Z,43.82
2024-05-09T20:35:34.834Z,43.78
2024-05-09T20:38:03.505Z,43.85
2024-05-09T20:40:36.287Z,43.91
2024-05-09T20:43:10.236Z,44.11
2024-05-09T20:45:38.890Z,44.08
2024-05-09T20:48:07.461Z,44.19
2024-05-09T20:50:39.615Z,44.33
2024-05-09T20:53:11.644Z,44.30
2024-05-09T20:55:40.971Z,44.33
2024-05-09T20:58:09.507Z,44.51
2024-05-09T21:00:40.614Z,44.46
2024-05-09T21:03:12.001Z,44.62
2024-05-09T21:05:39.886Z,44.50
2024-05-09T21:08:07.982Z,44.45
2024-05-09T21:10:36.890Z,45.03
2024-05-09T21:13:05.669Z,45.49
2024-05-09T21:15:33.814Z,46.34
2024-05-09T21:18:01.232Z,46.53
2024-05-09T21:20:31.488Z,46.70
2024-05-09T21:23:00.495Z,46.62
2024-05-09T21:25:27.778Z,46.92
2024-05-09T21:27:55.273Z,46.82
2024-05-09T21:30:32.228Z,46.96
2024-05-09T21:33:12.297Z,47.91
2024-05-09T21:35:42.223Z,47.31
2024-05-09T21:38:09.733Z,47.02
2024-05-09T21:40:38.296Z,46.79
2024-05-09T21:43:08.128Z,46.73
2024-05-09T21:45:36.576Z,46.62
2024-05-09T21:48:05.105Z,46.64
2024-05-09T21:50:39.404Z,46.54
2024-05-09T21:53:09.950Z,46.95
2024-05-09T21:55:37.814Z,46.82
2024-05-09T21:58:05.510Z,47.25
2024-05-09T22:00:37.710Z,46.96
2024-05-09T22:03:08.713Z,46.81
2024-05-09T22:05:37.756Z,47.29
2024-05-09T22:08:05.676Z,47.18
2024-05-09T22:10:35.481Z,47.29
2024-05-09T22:13:06.103Z,47.36
2024-05-09T22:15:39.711Z,47.44
2024-05-09T22:18:09.982Z,47.26
2024-05-09T22:20:45.246Z,47.25
2024-05-09T22:23:14.021Z,47.14
2024-05-09T22:25:41.394Z,47.29
2024-05-09T22:28:09.231Z,47.32
2024-05-09T22:30:39.285Z,47.19
2024-05-09T22:33:09.758Z,47.21
2024-05-09T22:35:38.803Z,47.32
2024-05-09T22:38:06.330Z,47.00
2024-05-09T22:40:43.396Z,47.55
2024-05-09T22:43:21.519Z,47.55
2024-05-09T22:45:50.941Z,47.15
2024-05-09T22:48:19.274Z,47.16
2024-05-09T22:50:47.246Z,47.41
2024-05-09T22:53:14.660Z,47.17
2024-05-09T22:55:42.448Z,47.46
2024-05-09T22:58:10.150Z,47.50
2024-05-09T23:00:37.962Z,47.55
2024-05-09T23:03:05.808Z,47.49
2024-05-09T23:05:33.962Z,47.56
2024-05-09T23:08:02.827Z,47.86
2024-05-09T23:10:35.985Z,47.59
2024-05-09T23:13:07.821Z,47.81
2024-05-09T23:15:37.159Z,47.75
2024-05-09T23:18:05.821Z,47.95
2024-05-09T23:20:38.043Z,47.71
2024-05-09T23:23:11.904Z,48.02
2024-05-09T23:25:41.980Z,48.03
2024-05-09T23:28:10.657Z,48.06
2024-05-09T23:30:40.442Z,48.17
2024-05-09T23:33:13.930Z,48.21
2024-05-09T23:35:44.168Z,48.08
2024-05-09T23:38:11.867Z,48.28
2024-05-09T23:40:41.112Z,48.41
2024-05-09T23:43:13.301Z,48.69
2024-05-09T23:45:42.023Z,48.62
2024-05-09T23:48:10.008Z,48.64
2024-05-09T23:50:39.314Z,48.48
2024-05-09T23:53:09.192Z,48.54
2024-05-09T23:55:37.669Z,48.72
2024-05-09T23:58:05.520Z,48.90
